Temp: 2.0°C   Baro: 1027.0mb
  Wind: 0.0mph   Dir: ESE (123°)
  Rain: 0.0mm (0.0mm/hr)
  Solar: 91W/m2  Hum: 97%

Historic data

Bath Spa Weather Station Historical Data
Daily Summary for October 02, 2022 Units:  Both    English   Metric
Daily Weekly Monthly Yearly Custom
  High: Low: Average:
Temperature: 64.8 °F /  18.2 °C 47.3 °F /  8.5 °C 56.3 °F /  13.5 °C
Dew Point: 56.3 °F /  13.5 °C 44 °F /  6.7 °C 51.6 °F /  10.9 °C
Humidity: 95% 63.8% 85%
Wind Speed: 7.9mph /  12.7km/h - 1.6mph /  2.6km/h
Wind Gust: 13mph /  20.9km/h - -
Wind- - WNW
Pressure: 30.34 in /  1027.3 hPa 29.98 in /  1015.1 hPa -
Precipitation: 0.28 in /  7.11 mm    
Historical Graphs
 
 
Tabular Data for October 02, 2022
Time Temperature Dew Point Pressure Wind Wind Speed Wind Gust Humidity Rainfall Rate (Hourly) solar
00:09 55.9 °F /  13.3 °C 53.4 °F /  11.9 °C 29.98in /  1015.1hPa West 2.8mph /  4.5km/h 5mph /  8km/h 91.2% 0.02in /  0.51mm 0 W/m2
00:14 55.8 °F /  13.2 °C 53.4 °F /  11.9 °C 29.98in /  1015.1hPa WSW 2.5mph /  4km/h 6mph /  9.7km/h 92% 0.02in /  0.51mm 0 W/m2
00:19 55.8 °F /  13.2 °C 53.4 °F /  11.9 °C 29.99in /  1015.5hPa West 2.9mph /  4.7km/h 6mph /  9.7km/h 92% 0.03in /  0.76mm 0 W/m2
00:24 55.8 °F /  13.2 °C 53.4 °F /  11.9 °C 29.99in /  1015.5hPa WNW 2.8mph /  4.5km/h 6mph /  9.7km/h 92% 0.03in /  0.76mm 0 W/m2
00:29 55.8 °F /  13.2 °C 53.4 °F /  11.9 °C 29.99in /  1015.5hPa West 2mph /  3.2km/h 4mph /  6.4km/h 92% 0.02in /  0.51mm 0 W/m2
00:34 55.8 °F /  13.2 °C 53.4 °F /  11.9 °C 29.99in /  1015.5hPa West 1.7mph /  2.7km/h 4mph /  6.4km/h 92% 0.02in /  0.51mm 0 W/m2
00:39 55.8 °F /  13.2 °C 53.4 °F /  11.9 °C 29.99in /  1015.5hPa West 1.2mph /  1.9km/h 3mph /  4.8km/h 92% 0.02in /  0.51mm 0 W/m2
00:44 55.8 °F /  13.2 °C 53.4 °F /  11.9 °C 29.99in /  1015.5hPa West 0.9mph /  1.4km/h 3mph /  4.8km/h 92% 0.02in /  0.51mm 0 W/m2
00:49 55.8 °F /  13.2 °C 53.4 °F /  11.9 °C 29.99in /  1015.5hPa West 2mph /  3.2km/h 4mph /  6.4km/h 92% 0.02in /  0.51mm 0 W/m2
00:54 55.7 °F /  13.2 °C 53.3 °F /  11.8 °C 29.99in /  1015.5hPa West 1.9mph /  3.1km/h 5mph /  8km/h 92% 0.02in /  0.51mm 0 W/m2
00:59 55.6 °F /  13.1 °C 53.2 °F /  11.8 °C 29.99in /  1015.5hPa West 1.2mph /  1.9km/h 3mph /  4.8km/h 92% 0.01in /  0.25mm 0 W/m2
01:04 55.6 °F /  13.1 °C 53.2 °F /  11.8 °C 29.99in /  1015.5hPa West 0.9mph /  1.4km/h 4mph /  6.4km/h 92% 0.01in /  0.25mm 0 W/m2
01:09 55.6 °F /  13.1 °C 53.2 °F /  11.8 °C 30.00in /  1015.8hPa West 1.1mph /  1.8km/h 3mph /  4.8km/h 92% 0.01in /  0.25mm 0 W/m2
01:14 55.5 °F /  13.1 °C 53.1 °F /  11.7 °C 30.00in /  1015.8hPa West 1.6mph /  2.6km/h 3mph /  4.8km/h 92% 0.01in /  0.25mm 0 W/m2
01:19 55.4 °F /  13 °C 53.1 °F /  11.7 °C 29.99in /  1015.5hPa WNW 1.7mph /  2.7km/h 4mph /  6.4km/h 92% 0.01in /  0.25mm 0 W/m2
01:24 55.3 °F /  12.9 °C 53 °F /  11.7 °C 29.99in /  1015.5hPa NW 0.4mph /  0.6km/h 6mph /  9.7km/h 92% 0.00in /  0mm 0 W/m2
01:29 55.2 °F /  12.9 °C 52.9 °F /  11.6 °C 29.99in /  1015.5hPa Calm   2mph /  3.2km/h 92% 0.00in /  0mm 0 W/m2
01:34 55.2 °F /  12.9 °C 52.9 °F /  11.6 °C 30.00in /  1015.8hPa Calm     92% 0.00in /  0mm 0 W/m2
01:39 55.2 °F /  12.9 °C 52.9 °F /  11.6 °C 30.00in /  1015.8hPa NW 0.5mph /  0.8km/h 2mph /  3.2km/h 92% 0.00in /  0mm 0 W/m2
01:44 55.2 °F /  12.9 °C 52.9 °F /  11.6 °C 30.00in /  1015.8hPa NW 0.5mph /  0.8km/h 2mph /  3.2km/h 92% 0.00in /  0mm 0 W/m2
01:49 55.2 °F /  12.9 °C 52.9 °F /  11.6 °C 30.00in /  1015.8hPa NW 0.4mph /  0.6km/h 2mph /  3.2km/h 92% 0.00in /  0mm 0 W/m2
01:54 55.1 °F /  12.8 °C 52.8 °F /  11.6 °C 30.00in /  1015.8hPa NW 0.4mph /  0.6km/h 2mph /  3.2km/h 92% 0.00in /  0mm 0 W/m2
01:59 55.1 °F /  12.8 °C 52.8 °F /  11.6 °C 30.01in /  1016.1hPa Calm     92% 0.00in /  0mm 0 W/m2
02:04 55 °F /  12.8 °C 52.7 °F /  11.5 °C 30.01in /  1016.1hPa Calm     92% 0.00in /  0mm 0 W/m2
02:09 55 °F /  12.8 °C 52.7 °F /  11.5 °C 30.01in /  1016.1hPa Calm     92% 0.00in /  0mm 0 W/m2
02:14 55 °F /  12.8 °C 52.7 °F /  11.5 °C 30.01in /  1016.1hPa NW 1.4mph /  2.3km/h 4mph /  6.4km/h 92% 0.00in /  0mm 0 W/m2
02:19 55 °F /  12.8 °C 52.7 °F /  11.5 °C 30.01in /  1016.1hPa NW 0.6mph /  1km/h 2mph /  3.2km/h 92% 0.00in /  0mm 0 W/m2
02:24 55 °F /  12.8 °C 52.7 °F /  11.5 °C 30.01in /  1016.1hPa NW 0.2mph /  0.3km/h 2mph /  3.2km/h 92% 0.00in /  0mm 0 W/m2
02:29 55 °F /  12.8 °C 52.7 °F /  11.5 °C 30.01in /  1016.1hPa Calm     92% 0.00in /  0mm 0 W/m2
02:34 55 °F /  12.8 °C 52.9 °F /  11.6 °C 30.01in /  1016.1hPa Calm     92.6% 0.00in /  0mm 0 W/m2
02:39 54.9 °F /  12.7 °C 52.9 °F /  11.6 °C 30.01in /  1016.1hPa Calm     93% 0.00in /  0mm 0 W/m2
02:44 54.9 °F /  12.7 °C 52.9 °F /  11.6 °C 30.01in /  1016.1hPa Calm     93% 0.00in /  0mm 0 W/m2
02:49 54.9 °F /  12.7 °C 53 °F /  11.7 °C 30.01in /  1016.1hPa Calm     93% 0.00in /  0mm 0 W/m2
02:54 54.9 °F /  12.7 °C 52.9 °F /  11.6 °C 30.01in /  1016.1hPa Calm     93% 0.00in /  0mm 0 W/m2
02:59 54.9 °F /  12.7 °C 52.9 °F /  11.6 °C 30.01in /  1016.1hPa NW 0.7mph /  1.1km/h 2mph /  3.2km/h 93% 0.00in /  0mm 0 W/m2
03:04 54.9 °F /  12.7 °C 52.9 °F /  11.6 °C 30.01in /  1016.1hPa NW 0.5mph /  0.8km/h 3mph /  4.8km/h 93% 0.00in /  0mm 0 W/m2
03:09 54.9 °F /  12.7 °C 52.9 °F /  11.6 °C 30.01in /  1016.1hPa NW 1.6mph /  2.6km/h 3mph /  4.8km/h 93% 0.00in /  0mm 0 W/m2
03:14 54.8 °F /  12.7 °C 52.8 °F /  11.6 °C 30.01in /  1016.1hPa NW 2.1mph /  3.4km/h 4mph /  6.4km/h 93% 0.00in /  0mm 0 W/m2
03:19 54.7 °F /  12.6 °C 52.7 °F /  11.5 °C 30.01in /  1016.1hPa NW 1.6mph /  2.6km/h 3mph /  4.8km/h 93% 0.00in /  0mm 0 W/m2
03:24 54.8 °F /  12.7 °C 52.8 °F /  11.6 °C 30.01in /  1016.1hPa NW 1.2mph /  1.9km/h 3mph /  4.8km/h 93% 0.00in /  0mm 0 W/m2
03:29 54.7 °F /  12.6 °C 52.7 °F /  11.5 °C 30.02in /  1016.5hPa NW 1.2mph /  1.9km/h 3mph /  4.8km/h 93% 0.00in /  0mm 0 W/m2
03:34 54.9 °F /  12.7 °C 52.9 °F /  11.6 °C 30.02in /  1016.5hPa NW 1.6mph /  2.6km/h 3mph /  4.8km/h 93% 0.00in /  0mm 0 W/m2
03:39 54.9 °F /  12.7 °C 52.9 °F /  11.6 °C 30.02in /  1016.5hPa NW 1.5mph /  2.4km/h 3mph /  4.8km/h 93% 0.01in /  0.25mm 0 W/m2
03:44 54.9 °F /  12.7 °C 52.9 °F /  11.6 °C 30.02in /  1016.5hPa NW 1.2mph /  1.9km/h 4mph /  6.4km/h 93% 0.01in /  0.25mm 0 W/m2
03:49 54.9 °F /  12.7 °C 52.9 °F /  11.6 °C 30.01in /  1016.1hPa NW 0.8mph /  1.3km/h 2mph /  3.2km/h 93% 0.01in /  0.25mm 0 W/m2
03:54 54.9 °F /  12.7 °C 52.9 °F /  11.6 °C 30.01in /  1016.1hPa NW 1.2mph /  1.9km/h 3mph /  4.8km/h 93% 0.01in /  0.25mm 0 W/m2
03:59 54.9 °F /  12.7 °C 52.9 °F /  11.6 °C 30.02in /  1016.5hPa NW 1.3mph /  2.1km/h 3mph /  4.8km/h 93% 0.01in /  0.25mm 0 W/m2
04:04 54.9 °F /  12.7 °C 52.9 °F /  11.6 °C 30.02in /  1016.5hPa Calm   2mph /  3.2km/h 93% 0.01in /  0.25mm 0 W/m2
04:09 54.9 °F /  12.7 °C 52.9 °F /  11.6 °C 30.02in /  1016.5hPa NW 0.2mph /  0.3km/h 1mph /  1.6km/h 93% 0.01in /  0.25mm 0 W/m2
04:14 54.9 °F /  12.7 °C 52.9 °F /  11.6 °C 30.02in /  1016.5hPa NW 0.4mph /  0.6km/h 2mph /  3.2km/h 93% 0.01in /  0.25mm 0 W/m2
04:19 54.9 °F /  12.7 °C 52.9 °F /  11.6 °C 30.02in /  1016.5hPa NW 1.2mph /  1.9km/h 3mph /  4.8km/h 93% 0.01in /  0.25mm 0 W/m2
04:24 54.9 °F /  12.7 °C 52.9 °F /  11.6 °C 30.02in /  1016.5hPa NW 0.6mph /  1km/h 2mph /  3.2km/h 93% 0.01in /  0.25mm 0 W/m2
04:29 54.9 °F /  12.7 °C 52.9 °F /  11.6 °C 30.02in /  1016.5hPa Calm     93% 0.02in /  0.51mm 0 W/m2
04:34 54.9 °F /  12.7 °C 52.9 °F /  11.6 °C 30.02in /  1016.5hPa NW 1.4mph /  2.3km/h 3mph /  4.8km/h 93% 0.02in /  0.51mm 0 W/m2
04:39 54.7 °F /  12.6 °C 52.8 °F /  11.6 °C 30.03in /  1016.8hPa NW 2mph /  3.2km/h 3mph /  4.8km/h 93.2% 0.01in /  0.25mm 0 W/m2
04:44 54.7 °F /  12.6 °C 53.1 °F /  11.7 °C 30.03in /  1016.8hPa NW 1.2mph /  1.9km/h 3mph /  4.8km/h 94% 0.01in /  0.25mm 0 W/m2
04:49 54.7 °F /  12.6 °C 53.1 °F /  11.7 °C 30.03in /  1016.8hPa NW 0.4mph /  0.6km/h 2mph /  3.2km/h 94% 0.02in /  0.51mm 0 W/m2
04:54 54.7 °F /  12.6 °C 53.1 °F /  11.7 °C 30.04in /  1017.2hPa NW 0.8mph /  1.3km/h 2mph /  3.2km/h 94% 0.02in /  0.51mm 0 W/m2
04:59 54.7 °F /  12.6 °C 53.1 °F /  11.7 °C 30.04in /  1017.2hPa NW 0.8mph /  1.3km/h 2mph /  3.2km/h 94% 0.02in /  0.51mm 0 W/m2
05:04 54.7 °F /  12.6 °C 53 °F /  11.7 °C 30.03in /  1016.8hPa NW 0.2mph /  0.3km/h 1mph /  1.6km/h 93.8% 0.02in /  0.51mm 0 W/m2
05:09 54.7 °F /  12.6 °C 52.7 °F /  11.5 °C 30.03in /  1016.8hPa Calm     93% 0.03in /  0.76mm 0 W/m2
05:14 54.6 °F /  12.6 °C 53 °F /  11.7 °C 30.03in /  1016.8hPa Calm     94% 0.04in /  1.02mm 0 W/m2
05:19 54.5 °F /  12.5 °C 52.9 °F /  11.6 °C 30.03in /  1016.8hPa Calm     94% 0.05in /  1.27mm 0 W/m2
05:24 54.3 °F /  12.4 °C 52.7 °F /  11.5 °C 30.03in /  1016.8hPa Calm     94% 0.06in /  1.52mm 0 W/m2
05:29 54.5 °F /  12.5 °C 52.9 °F /  11.6 °C 30.03in /  1016.8hPa NW 0.2mph /  0.3km/h 2mph /  3.2km/h 94% 0.05in /  1.27mm 0 W/m2
05:34 54.5 °F /  12.5 °C 52.9 °F /  11.6 °C 30.03in /  1016.8hPa NW 0.7mph /  1.1km/h 2mph /  3.2km/h 94% 0.06in /  1.52mm 0 W/m2
05:39 54.5 °F /  12.5 °C 52.9 °F /  11.6 °C 30.03in /  1016.8hPa NW 0.5mph /  0.8km/h 2mph /  3.2km/h 94% 0.06in /  1.52mm 0 W/m2
05:44 54.4 °F /  12.4 °C 52.8 °F /  11.6 °C 30.04in /  1017.2hPa NW 0.6mph /  1km/h 2mph /  3.2km/h 94% 0.06in /  1.52mm 0 W/m2
05:49 54.5 °F /  12.5 °C 52.9 °F /  11.6 °C 30.04in /  1017.2hPa NW 0.2mph /  0.3km/h 2mph /  3.2km/h 94% 0.06in /  1.52mm 0 W/m2
05:54 54.4 °F /  12.4 °C 52.8 °F /  11.6 °C 30.04in /  1017.2hPa Calm     94% 0.06in /  1.52mm 0 W/m2
05:59 54.3 °F /  12.4 °C 52.7 °F /  11.5 °C 30.04in /  1017.2hPa Calm     94% 0.06in /  1.52mm 0 W/m2
06:04 54.3 °F /  12.4 °C 52.7 °F /  11.5 °C 30.03in /  1016.8hPa Calm     94% 0.06in /  1.52mm 0 W/m2
06:09 54.3 °F /  12.4 °C 52.7 °F /  11.5 °C 30.04in /  1017.2hPa Calm     94% 0.06in /  1.52mm 0 W/m2
06:14 54.3 °F /  12.4 °C 52.7 °F /  11.5 °C 30.04in /  1017.2hPa Calm     94% 0.06in /  1.52mm 0 W/m2
06:19 54.3 °F /  12.4 °C 52.7 °F /  11.5 °C 30.05in /  1017.5hPa NW 0.2mph /  0.3km/h 2mph /  3.2km/h 94% 0.06in /  1.52mm 0 W/m2
06:24 54.3 °F /  12.4 °C 52.7 °F /  11.5 °C 30.05in /  1017.5hPa NW 2.1mph /  3.4km/h 4mph /  6.4km/h 94% 0.05in /  1.27mm 0 W/m2
06:29 54.3 °F /  12.4 °C 52.7 °F /  11.5 °C 30.05in /  1017.5hPa NW 2.3mph /  3.7km/h 4mph /  6.4km/h 94% 0.05in /  1.27mm 0 W/m2
06:34 54.3 °F /  12.4 °C 52.7 °F /  11.5 °C 30.05in /  1017.5hPa NW 2.1mph /  3.4km/h 4mph /  6.4km/h 94% 0.05in /  1.27mm 0 W/m2
06:39 54.3 °F /  12.4 °C 52.7 °F /  11.5 °C 30.06in /  1017.8hPa WNW 1.5mph /  2.4km/h 4mph /  6.4km/h 94% 0.05in /  1.27mm 0 W/m2
06:44 54.3 °F /  12.4 °C 52.7 °F /  11.5 °C 30.06in /  1017.8hPa WNW 2.1mph /  3.4km/h 4mph /  6.4km/h 94% 0.05in /  1.27mm 0 W/m2
06:49 54.2 °F /  12.3 °C 52.6 °F /  11.4 °C 30.06in /  1017.8hPa WNW 1.7mph /  2.7km/h 4mph /  6.4km/h 94% 0.05in /  1.27mm 0 W/m2
06:54 54.1 °F /  12.3 °C 52.5 °F /  11.4 °C 30.06in /  1017.8hPa WNW 2.3mph /  3.7km/h 5mph /  8km/h 94% 0.05in /  1.27mm 0 W/m2
06:59 54.1 °F /  12.3 °C 52.5 °F /  11.4 °C 30.07in /  1018.2hPa West 1mph /  1.6km/h 3mph /  4.8km/h 94% 0.06in /  1.52mm 0 W/m2
07:04 54 °F /  12.2 °C 52.3 °F /  11.3 °C 30.06in /  1017.8hPa West 1mph /  1.6km/h 3mph /  4.8km/h 94% 0.06in /  1.52mm 0 W/m2
07:09 53.9 °F /  12.2 °C 52.2 °F /  11.2 °C 30.07in /  1018.2hPa West 1.6mph /  2.6km/h 4mph /  6.4km/h 94% 0.06in /  1.52mm 0 W/m2
07:14 53.7 °F /  12.1 °C 52.1 °F /  11.2 °C 30.07in /  1018.2hPa Calm   2mph /  3.2km/h 94% 0.06in /  1.52mm 0 W/m2
07:19 53.4 °F /  11.9 °C 51.8 °F /  11 °C 30.08in /  1018.5hPa West 0.4mph /  0.6km/h 1mph /  1.6km/h 94% 0.06in /  1.52mm 0 W/m2
07:24 53.2 °F /  11.8 °C 51.6 °F /  10.9 °C 30.08in /  1018.5hPa Calm     94% 0.06in /  1.52mm 0 W/m2
07:29 53.2 °F /  11.8 °C 51.6 °F /  10.9 °C 30.08in /  1018.5hPa Calm     94% 0.06in /  1.52mm 0 W/m2
07:34 53.2 °F /  11.8 °C 51.6 °F /  10.9 °C 30.08in /  1018.5hPa Calm     94% 0.06in /  1.52mm 0 W/m2
07:39 53.2 °F /  11.8 °C 51.6 °F /  10.9 °C 30.08in /  1018.5hPa Calm     94% 0.06in /  1.52mm 0 W/m2
07:44 53.2 °F /  11.8 °C 51.6 °F /  10.9 °C 30.09in /  1018.8hPa West 0.8mph /  1.3km/h 2mph /  3.2km/h 94% 0.06in /  1.52mm 0 W/m2
07:49 53.1 °F /  11.7 °C 51.4 °F /  10.8 °C 30.09in /  1018.8hPa West 1.4mph /  2.3km/h 3mph /  4.8km/h 94% 0.06in /  1.52mm 0 W/m2
07:54 53.1 °F /  11.7 °C 51.5 °F /  10.8 °C 30.09in /  1018.8hPa West 1.5mph /  2.4km/h 4mph /  6.4km/h 94.6% 0.06in /  1.52mm 0 W/m2
07:59 52.9 °F /  11.6 °C 51.5 °F /  10.8 °C 30.09in /  1018.8hPa West 1.7mph /  2.7km/h 3mph /  4.8km/h 95% 0.06in /  1.52mm 5 W/m2
08:04 52.5 °F /  11.4 °C 50.9 °F /  10.5 °C 30.10in /  1019.2hPa West 0.9mph /  1.4km/h 3mph /  4.8km/h 94% 0.06in /  1.52mm 7 W/m2
08:09 52.4 °F /  11.3 °C 50.9 °F /  10.5 °C 30.10in /  1019.2hPa West 1.3mph /  2.1km/h 2mph /  3.2km/h 94.4% 0.06in /  1.52mm 9 W/m2
08:14 52.3 °F /  11.3 °C 50.9 °F /  10.5 °C 30.10in /  1019.2hPa West 1.2mph /  1.9km/h 3mph /  4.8km/h 95% 0.06in /  1.52mm 12 W/m2
08:19 52.2 °F /  11.2 °C 50.7 °F /  10.4 °C 30.11in /  1019.5hPa West 1.5mph /  2.4km/h 3mph /  4.8km/h 95% 0.06in /  1.52mm 14 W/m2
08:24 52.2 °F /  11.2 °C 50.7 °F /  10.4 °C 30.11in /  1019.5hPa West 1.3mph /  2.1km/h 3mph /  4.8km/h 95% 0.06in /  1.52mm 12 W/m2
08:29 52 °F /  11.1 °C 50.5 °F /  10.3 °C 30.11in /  1019.5hPa West 1.7mph /  2.7km/h 3mph /  4.8km/h 94.2% 0.06in /  1.52mm 14 W/m2
08:34 52 °F /  11.1 °C 50.4 °F /  10.2 °C 30.11in /  1019.5hPa West 0.5mph /  0.8km/h 3mph /  4.8km/h 94% 0.07in /  1.78mm 14 W/m2
08:39 52 °F /  11.1 °C 50.5 °F /  10.3 °C 30.11in /  1019.5hPa West 0.2mph /  0.3km/h 2mph /  3.2km/h 94.4% 0.07in /  1.78mm 21 W/m2
08:44 52 °F /  11.1 °C 50.5 °F /  10.3 °C 30.11in /  1019.5hPa Calm   1mph /  1.6km/h 94.6% 0.07in /  1.78mm 26 W/m2
08:49 52.2 °F /  11.2 °C 50.7 °F /  10.4 °C 30.11in /  1019.5hPa West 0.5mph /  0.8km/h 2mph /  3.2km/h 95% 0.07in /  1.78mm 26 W/m2
08:54 52.1 °F /  11.2 °C 50.6 °F /  10.3 °C 30.11in /  1019.5hPa Calm   2mph /  3.2km/h 95% 0.08in /  2.03mm 25 W/m2
08:59 52.1 °F /  11.2 °C 50.6 °F /  10.3 °C 30.11in /  1019.5hPa Calm     94.8% 0.07in /  1.78mm 26 W/m2
09:04 52.1 °F /  11.2 °C 50.5 °F /  10.3 °C 30.11in /  1019.5hPa West 0.9mph /  1.4km/h 2mph /  3.2km/h 94.6% 0.07in /  1.78mm 30 W/m2
09:09 52 °F /  11.1 °C 50.4 °F /  10.2 °C 30.12in /  1019.9hPa West 0.4mph /  0.6km/h 3mph /  4.8km/h 94% 0.06in /  1.52mm 39 W/m2
09:14 52 °F /  11.1 °C 50.5 °F /  10.3 °C 30.12in /  1019.9hPa West 1.6mph /  2.6km/h 3mph /  4.8km/h 94.4% 0.06in /  1.52mm 51 W/m2
09:19 52 °F /  11.1 °C 50.5 °F /  10.3 °C 30.12in /  1019.9hPa West 1.6mph /  2.6km/h 3mph /  4.8km/h 94.2% 0.06in /  1.52mm 65 W/m2
09:24 52 °F /  11.1 °C 50.4 °F /  10.2 °C 30.12in /  1019.9hPa West 0.4mph /  0.6km/h 3mph /  4.8km/h 94% 0.06in /  1.52mm 81 W/m2
09:29 52.1 °F /  11.2 °C 50.6 °F /  10.3 °C 30.13in /  1020.2hPa Calm   2mph /  3.2km/h 94.8% 0.05in /  1.27mm 90 W/m2
09:34 52.2 °F /  11.2 °C 50.7 °F /  10.4 °C 30.13in /  1020.2hPa West 0.9mph /  1.4km/h 2mph /  3.2km/h 95% 0.04in /  1.02mm 90 W/m2
09:39 52.3 °F /  11.3 °C 50.9 °F /  10.5 °C 30.13in /  1020.2hPa West 1.2mph /  1.9km/h 2mph /  3.2km/h 95% 0.03in /  0.76mm 86 W/m2
09:44 52.3 °F /  11.3 °C 50.9 °F /  10.5 °C 30.13in /  1020.2hPa West 1mph /  1.6km/h 2mph /  3.2km/h 95% 0.02in /  0.51mm 91 W/m2
09:49 52.3 °F /  11.3 °C 50.9 °F /  10.5 °C 30.12in /  1019.9hPa West 1.6mph /  2.6km/h 3mph /  4.8km/h 95% 0.02in /  0.51mm 90 W/m2
09:54 52.3 °F /  11.3 °C 50.9 °F /  10.5 °C 30.12in /  1019.9hPa West 0.8mph /  1.3km/h 3mph /  4.8km/h 95% 0.02in /  0.51mm 91 W/m2
09:59 52.4 °F /  11.3 °C 50.9 °F /  10.5 °C 30.13in /  1020.2hPa Calm   1mph /  1.6km/h 94.6% 0.01in /  0.25mm 114 W/m2
10:04 52.6 °F /  11.4 °C 51 °F /  10.6 °C 30.13in /  1020.2hPa West 0.2mph /  0.3km/h 1mph /  1.6km/h 94% 0.01in /  0.25mm 123 W/m2
10:09 52.7 °F /  11.5 °C 51.2 °F /  10.7 °C 30.13in /  1020.2hPa Calm   1mph /  1.6km/h 94.2% 0.01in /  0.25mm 128 W/m2
10:14 52.9 °F /  11.6 °C 51.4 °F /  10.8 °C 30.13in /  1020.2hPa West 0.4mph /  0.6km/h 2mph /  3.2km/h 95% 0.01in /  0.25mm 181 W/m2
10:19 53.1 °F /  11.7 °C 51.6 °F /  10.9 °C 30.14in /  1020.5hPa West 1.2mph /  1.9km/h 3mph /  4.8km/h 94.4% 0.00in /  0mm 278 W/m2
10:24 53.3 °F /  11.8 °C 51.7 °F /  10.9 °C 30.14in /  1020.5hPa West 1.7mph /  2.7km/h 4mph /  6.4km/h 94% 0.00in /  0mm 318 W/m2
10:29 53.4 °F /  11.9 °C 51.8 °F /  11 °C 30.14in /  1020.5hPa West 2.1mph /  3.4km/h 4mph /  6.4km/h 94% 0.00in /  0mm 355 W/m2
10:34 54 °F /  12.2 °C 52.4 °F /  11.3 °C 30.14in /  1020.5hPa WNW 2mph /  3.2km/h 5mph /  8km/h 94.6% 0.00in /  0mm 471 W/m2
10:39 54.6 °F /  12.6 °C 53.1 °F /  11.7 °C 30.14in /  1020.5hPa West 2.7mph /  4.3km/h 6mph /  9.7km/h 94.4% 0.00in /  0mm 482 W/m2
10:44 54.8 °F /  12.7 °C 53.1 °F /  11.7 °C 30.14in /  1020.5hPa West 3.5mph /  5.6km/h 6mph /  9.7km/h 94% 0.00in /  0mm 482 W/m2
10:49 55.2 °F /  12.9 °C 53.6 °F /  12 °C 30.14in /  1020.5hPa West 2.3mph /  3.7km/h 5mph /  8km/h 94% 0.00in /  0mm 443 W/m2
10:54 55 °F /  12.8 °C 53.4 °F /  11.9 °C 30.14in /  1020.5hPa WNW 3mph /  4.8km/h 5mph /  8km/h 94% 0.00in /  0mm 308 W/m2
10:59 55 °F /  12.8 °C 53.4 °F /  11.9 °C 30.15in /  1020.9hPa WNW 2.3mph /  3.7km/h 4mph /  6.4km/h 94% 0.00in /  0mm 197 W/m2
11:04 55.5 °F /  13.1 °C 53.9 °F /  12.2 °C 30.15in /  1020.9hPa WNW 3.2mph /  5.1km/h 5mph /  8km/h 94% 0.00in /  0mm 432 W/m2
11:09 55.8 °F /  13.2 °C 54.1 °F /  12.3 °C 30.15in /  1020.9hPa WNW 2.9mph /  4.7km/h 5mph /  8km/h 93.8% 0.00in /  0mm 438 W/m2
11:14 56.1 °F /  13.4 °C 54.4 °F /  12.4 °C 30.15in /  1020.9hPa West 1.9mph /  3.1km/h 5mph /  8km/h 93.6% 0.00in /  0mm 445 W/m2
11:19 56.5 °F /  13.6 °C 54.5 °F /  12.5 °C 30.15in /  1020.9hPa WNW 3.4mph /  5.5km/h 7mph /  11.3km/h 93% 0.00in /  0mm 454 W/m2
11:24 56.9 °F /  13.8 °C 54.9 °F /  12.7 °C 30.15in /  1020.9hPa West 4.1mph /  6.6km/h 6mph /  9.7km/h 93% 0.00in /  0mm 462 W/m2
11:29 57.1 °F /  13.9 °C 54.8 °F /  12.7 °C 30.15in /  1020.9hPa West 2.5mph /  4km/h 6mph /  9.7km/h 92% 0.00in /  0mm 478 W/m2
11:34 57.6 °F /  14.2 °C 55.2 °F /  12.9 °C 30.16in /  1021.2hPa West 3.8mph /  6.1km/h 6mph /  9.7km/h 92% 0.00in /  0mm 483 W/m2
11:39 57.7 °F /  14.3 °C 55.2 °F /  12.9 °C 30.16in /  1021.2hPa West 4mph /  6.4km/h 6mph /  9.7km/h 91.2% 0.00in /  0mm 485 W/m2
11:44 57.9 °F /  14.4 °C 55.1 °F /  12.8 °C 30.16in /  1021.2hPa WNW 3.5mph /  5.6km/h 6mph /  9.7km/h 90.8% 0.00in /  0mm 492 W/m2
11:49 58.1 °F /  14.5 °C 55.2 °F /  12.9 °C 30.16in /  1021.2hPa West 2.2mph /  3.5km/h 5mph /  8km/h 90% 0.00in /  0mm 497 W/m2
11:54 58.6 °F /  14.8 °C 55.7 °F /  13.2 °C 30.17in /  1021.6hPa WSW 2.2mph /  3.5km/h 5mph /  8km/h 90% 0.00in /  0mm 503 W/m2
11:59 59.5 °F /  15.3 °C 56.2 °F /  13.4 °C 30.17in /  1021.6hPa WSW 2.8mph /  4.5km/h 6mph /  9.7km/h 88.8% 0.00in /  0mm 508 W/m2
12:04 60 °F /  15.6 °C 56.3 °F /  13.5 °C 30.17in /  1021.6hPa West 2.1mph /  3.4km/h 5mph /  8km/h 87.8% 0.00in /  0mm 527 W/m2
12:09 60.1 °F /  15.6 °C 56 °F /  13.3 °C 30.17in /  1021.6hPa NW 4.5mph /  7.2km/h 7mph /  11.3km/h 86.4% 0.00in /  0mm 520 W/m2
12:14 60.2 °F /  15.7 °C 55.6 °F /  13.1 °C 30.17in /  1021.6hPa North 3.3mph /  5.3km/h 9mph /  14.5km/h 84.8% 0.00in /  0mm 545 W/m2
12:19 60.3 °F /  15.7 °C 54.9 °F /  12.7 °C 30.17in /  1021.6hPa NNW 3.7mph /  6km/h 8mph /  12.9km/h 82.6% 0.00in /  0mm 559 W/m2
12:24 60.7 °F /  15.9 °C 55 °F /  12.8 °C 30.17in /  1021.6hPa NW 3.3mph /  5.3km/h 6mph /  9.7km/h 81.6% 0.00in /  0mm 617 W/m2
12:29 60.9 °F /  16.1 °C 54.7 °F /  12.6 °C 30.17in /  1021.6hPa WNW 5.6mph /  9km/h 8mph /  12.9km/h 80% 0.00in /  0mm 605 W/m2
12:34 61.2 °F /  16.2 °C 54.5 °F /  12.5 °C 30.17in /  1021.6hPa WNW 3.7mph /  6km/h 7mph /  11.3km/h 78.6% 0.00in /  0mm 580 W/m2
12:39 61.7 °F /  16.5 °C 54.8 °F /  12.7 °C 30.18in /  1021.9hPa NNE 1.3mph /  2.1km/h 5mph /  8km/h 78% 0.00in /  0mm 631 W/m2
12:44 62.7 °F /  17.1 °C 55.4 °F /  13 °C 30.18in /  1021.9hPa NW 1.6mph /  2.6km/h 5mph /  8km/h 77.2% 0.00in /  0mm 132 W/m2
12:49 62.1 °F /  16.7 °C 54.1 °F /  12.3 °C 30.19in /  1022.2hPa WNW 3.1mph /  5km/h 7mph /  11.3km/h 75.2% 0.00in /  0mm 499 W/m2
12:54 61.3 °F /  16.3 °C 53.6 °F /  12 °C 30.19in /  1022.2hPa WNW 1.8mph /  2.9km/h 5mph /  8km/h 75.4% 0.00in /  0mm 656 W/m2
12:59 61.9 °F /  16.6 °C 54.1 °F /  12.3 °C 30.19in /  1022.2hPa WNW 4.1mph /  6.6km/h 9mph /  14.5km/h 75.6% 0.00in /  0mm 657 W/m2
13:04 62.2 °F /  16.8 °C 53.8 °F /  12.1 °C 30.19in /  1022.2hPa WNW 3.5mph /  5.6km/h 8mph /  12.9km/h 74.2% 0.00in /  0mm 612 W/m2
13:09 62.2 °F /  16.8 °C 53.4 °F /  11.9 °C 30.19in /  1022.2hPa NW 4.8mph /  7.7km/h 8mph /  12.9km/h 73% 0.00in /  0mm 610 W/m2
13:14 62.1 °F /  16.7 °C 53.2 °F /  11.8 °C 30.19in /  1022.2hPa WNW 4.4mph /  7.1km/h 8mph /  12.9km/h 72.8% 0.00in /  0mm 622 W/m2
13:19 62.7 °F /  17.1 °C 53.9 °F /  12.2 °C 30.19in /  1022.2hPa WNW 5mph /  8km/h 8mph /  12.9km/h 73% 0.00in /  0mm 636 W/m2
13:24 63 °F /  17.2 °C 53.9 °F /  12.2 °C 30.19in /  1022.2hPa West 4.3mph /  6.9km/h 8mph /  12.9km/h 72.2% 0.00in /  0mm 645 W/m2
13:29 63 °F /  17.2 °C 53.8 °F /  12.1 °C 30.19in /  1022.2hPa NW 3.3mph /  5.3km/h 8mph /  12.9km/h 72.2% 0.00in /  0mm 691 W/m2
13:34 63.3 °F /  17.4 °C 54.2 °F /  12.3 °C 30.19in /  1022.2hPa WNW 5.1mph /  8.2km/h 9mph /  14.5km/h 72.2% 0.00in /  0mm 715 W/m2
13:39 63.1 °F /  17.3 °C 53.6 °F /  12 °C 30.20in /  1022.6hPa NW 4.1mph /  6.6km/h 7mph /  11.3km/h 71% 0.00in /  0mm 705 W/m2
13:44 63 °F /  17.2 °C 53.7 °F /  12.1 °C 30.20in /  1022.6hPa NNW 3.5mph /  5.6km/h 6mph /  9.7km/h 71.8% 0.00in /  0mm 322 W/m2
13:49 62.8 °F /  17.1 °C 53.6 °F /  12 °C 30.20in /  1022.6hPa NW 3.7mph /  6km/h 8mph /  12.9km/h 72% 0.00in /  0mm 621 W/m2
13:54 63.1 °F /  17.3 °C 53.8 °F /  12.1 °C 30.20in /  1022.6hPa WNW 4.7mph /  7.6km/h 10mph /  16.1km/h 71.8% 0.00in /  0mm 594 W/m2
13:59 63.5 °F /  17.5 °C 53.8 °F /  12.1 °C 30.20in /  1022.6hPa West 4.1mph /  6.6km/h 8mph /  12.9km/h 70.4% 0.00in /  0mm 619 W/m2
14:04 63.8 °F /  17.7 °C 53.9 °F /  12.2 °C 30.20in /  1022.6hPa WNW 5mph /  8km/h 9mph /  14.5km/h 70% 0.00in /  0mm 689 W/m2
14:09 64 °F /  17.8 °C 53.5 °F /  11.9 °C 30.20in /  1022.6hPa West 3.1mph /  5km/h 9mph /  14.5km/h 68.8% 0.00in /  0mm 701 W/m2
14:14 64.7 °F /  18.2 °C 53.9 °F /  12.2 °C 30.20in /  1022.6hPa West 5.1mph /  8.2km/h 10mph /  16.1km/h 68% 0.00in /  0mm 687 W/m2
14:19 64.8 °F /  18.2 °C 54 °F /  12.2 °C 30.20in /  1022.6hPa WNW 6.2mph /  10km/h 11mph /  17.7km/h 68% 0.00in /  0mm 682 W/m2
14:24 64.6 °F /  18.1 °C 54.5 °F /  12.5 °C 30.20in /  1022.6hPa WNW 5.2mph /  8.4km/h 9mph /  14.5km/h 70% 0.00in /  0mm 461 W/m2
14:29 63.6 °F /  17.6 °C 54.1 °F /  12.3 °C 30.21in /  1022.9hPa WNW 7.9mph /  12.7km/h 13mph /  20.9km/h 71.2% 0.00in /  0mm 121 W/m2
14:34 62.3 °F /  16.8 °C 53.3 °F /  11.8 °C 30.21in /  1022.9hPa NNW 5.3mph /  8.5km/h 12mph /  19.3km/h 72.4% 0.00in /  0mm 144 W/m2
14:39 62 °F /  16.7 °C 53.2 °F /  11.8 °C 30.21in /  1022.9hPa NNW 3.9mph /  6.3km/h 10mph /  16.1km/h 73.2% 0.00in /  0mm 144 W/m2
14:44 61.9 °F /  16.6 °C 53.4 °F /  11.9 °C 30.21in /  1022.9hPa North 4.4mph /  7.1km/h 8mph /  12.9km/h 74% 0.00in /  0mm 287 W/m2
14:49 62.1 °F /  16.7 °C 53.6 °F /  12 °C 30.22in /  1023.2hPa North 5.2mph /  8.4km/h 8mph /  12.9km/h 74% 0.00in /  0mm 225 W/m2
14:54 62.2 °F /  16.8 °C 53.7 °F /  12.1 °C 30.22in /  1023.2hPa North 6.2mph /  10km/h 9mph /  14.5km/h 73.8% 0.00in /  0mm 216 W/m2
14:59 62.2 °F /  16.8 °C 53.4 °F /  11.9 °C 30.22in /  1023.2hPa NW 2.3mph /  3.7km/h 9mph /  14.5km/h 73% 0.00in /  0mm 418 W/m2
15:04 62.3 °F /  16.8 °C 53.5 °F /  11.9 °C 30.22in /  1023.2hPa NW 2.5mph /  4km/h 6mph /  9.7km/h 73% 0.00in /  0mm 225 W/m2
15:09 62.5 °F /  16.9 °C 53.6 °F /  12 °C 30.22in /  1023.2hPa NNW 3.5mph /  5.6km/h 8mph /  12.9km/h 72.8% 0.00in /  0mm 294 W/m2
15:14 62.5 °F /  16.9 °C 53.3 °F /  11.8 °C 30.22in /  1023.2hPa NNW 3.5mph /  5.6km/h 8mph /  12.9km/h 72% 0.00in /  0mm 251 W/m2
15:19 62.5 °F /  16.9 °C 53.4 °F /  11.9 °C 30.21in /  1022.9hPa North 2.5mph /  4km/h 5mph /  8km/h 72.4% 0.00in /  0mm 267 W/m2
15:24 63.2 °F /  17.3 °C 54.3 °F /  12.4 °C 30.22in /  1023.2hPa NNW 3mph /  4.8km/h 8mph /  12.9km/h 72.6% 0.00in /  0mm 410 W/m2
15:29 63.5 °F /  17.5 °C 54.1 °F /  12.3 °C 30.22in /  1023.2hPa NNW 2.4mph /  3.9km/h 5mph /  8km/h 71.4% 0.00in /  0mm 424 W/m2
15:34 63.8 °F /  17.7 °C 53.9 °F /  12.2 °C 30.21in /  1022.9hPa NNW 2.4mph /  3.9km/h 5mph /  8km/h 70% 0.00in /  0mm 424 W/m2
15:39 64.1 °F /  17.8 °C 54.4 °F /  12.4 °C 30.21in /  1022.9hPa NNW 2.1mph /  3.4km/h 4mph /  6.4km/h 70.6% 0.00in /  0mm 461 W/m2
15:44 64.4 °F /  18 °C 53.9 °F /  12.2 °C 30.21in /  1022.9hPa North 3.4mph /  5.5km/h 6mph /  9.7km/h 68.8% 0.00in /  0mm 448 W/m2
15:49 64.5 °F /  18.1 °C 53.3 °F /  11.8 °C 30.22in /  1023.2hPa WNW 2.9mph /  4.7km/h 8mph /  12.9km/h 67% 0.00in /  0mm 408 W/m2
15:54 64 °F /  17.8 °C 52.7 °F /  11.5 °C 30.22in /  1023.2hPa NW 2mph /  3.2km/h 6mph /  9.7km/h 66.8% 0.00in /  0mm 134 W/m2
15:59 63.2 °F /  17.3 °C 52.3 °F /  11.3 °C 30.22in /  1023.2hPa WNW 4.4mph /  7.1km/h 7mph /  11.3km/h 67.6% 0.00in /  0mm 139 W/m2
16:04 63 °F /  17.2 °C 52.1 °F /  11.2 °C 30.22in /  1023.2hPa NW 2.8mph /  4.5km/h 5mph /  8km/h 67.6% 0.00in /  0mm 148 W/m2
16:09 62.8 °F /  17.1 °C 51.8 °F /  11 °C 30.22in /  1023.2hPa WNW 3.5mph /  5.6km/h 6mph /  9.7km/h 67.4% 0.00in /  0mm 141 W/m2
16:14 62.8 °F /  17.1 °C 51.8 °F /  11 °C 30.22in /  1023.2hPa WNW 2.8mph /  4.5km/h 5mph /  8km/h 67.4% 0.00in /  0mm 127 W/m2
16:19 62.8 °F /  17.1 °C 52 °F /  11.1 °C 30.22in /  1023.2hPa West 1.4mph /  2.3km/h 4mph /  6.4km/h 68% 0.00in /  0mm 123 W/m2
16:24 62.9 °F /  17.2 °C 51.9 °F /  11.1 °C 30.22in /  1023.2hPa WNW 2mph /  3.2km/h 6mph /  9.7km/h 67.5% 0.00in /  0mm 378 W/m2
16:29 63.5 °F /  17.5 °C 52.2 °F /  11.2 °C 30.22in /  1023.2hPa WNW 2.9mph /  4.7km/h 6mph /  9.7km/h 66.8% 0.00in /  0mm 373 W/m2
16:34 63.4 °F /  17.4 °C 52 °F /  11.1 °C 30.23in /  1023.6hPa NW 6mph /  9.7km/h 10mph /  16.1km/h 66.4% 0.00in /  0mm 186 W/m2
16:39 62.9 °F /  17.2 °C 51.8 °F /  11 °C 30.23in /  1023.6hPa WNW 4.5mph /  7.2km/h 7mph /  11.3km/h 67.4% 0.00in /  0mm 151 W/m2
16:44 63 °F /  17.2 °C 52.5 °F /  11.4 °C 30.23in /  1023.6hPa NW 4.2mph /  6.8km/h 9mph /  14.5km/h 68.4% 0.00in /  0mm 352 W/m2
16:49 63.3 °F /  17.4 °C 52.6 °F /  11.4 °C 30.23in /  1023.6hPa WNW 2.8mph /  4.5km/h 7mph /  11.3km/h 68.2% 0.00in /  0mm 142 W/m2
16:54 63.5 °F /  17.5 °C 53.1 °F /  11.7 °C 30.23in /  1023.6hPa NW 4.4mph /  7.1km/h 9mph /  14.5km/h 69% 0.00in /  0mm 304 W/m2
16:59 63.6 °F /  17.6 °C 52.5 °F /  11.4 °C 30.23in /  1023.6hPa NNW 4.5mph /  7.2km/h 9mph /  14.5km/h 67.2% 0.00in /  0mm 294 W/m2
17:04 63.1 °F /  17.3 °C 52 °F /  11.1 °C 30.23in /  1023.6hPa NNW 4.4mph /  7.1km/h 7mph /  11.3km/h 66.8% 0.00in /  0mm 104 W/m2
17:09 63.1 °F /  17.3 °C 52.1 °F /  11.2 °C 30.24in /  1023.9hPa NNW 3.2mph /  5.1km/h 6mph /  9.7km/h 67.2% 0.00in /  0mm 246 W/m2
17:14 63.5 °F /  17.5 °C 52.5 °F /  11.4 °C 30.23in /  1023.6hPa North 3.7mph /  6km/h 7mph /  11.3km/h 67.2% 0.00in /  0mm 216 W/m2
17:19 63.9 °F /  17.7 °C 52.8 °F /  11.6 °C 30.23in /  1023.6hPa NNW 2.2mph /  3.5km/h 6mph /  9.7km/h 67% 0.00in /  0mm 183 W/m2
17:24 64.4 °F /  18 °C 52.8 °F /  11.6 °C 30.24in /  1023.9hPa North 2.7mph /  4.3km/h 7mph /  11.3km/h 66.2% 0.00in /  0mm 169 W/m2
17:29 64.6 °F /  18.1 °C 52.3 °F /  11.3 °C 30.24in /  1023.9hPa NW 3mph /  4.8km/h 6mph /  9.7km/h 64.2% 0.00in /  0mm 156 W/m2
17:34 63.9 °F /  17.7 °C 51.4 °F /  10.8 °C 30.24in /  1023.9hPa North 4.8mph /  7.7km/h 7mph /  11.3km/h 63.8% 0.00in /  0mm 128 W/m2
17:39 63.3 °F /  17.4 °C 51 °F /  10.6 °C 30.24in /  1023.9hPa NNW 2.4mph /  3.9km/h 6mph /  9.7km/h 64.2% 0.00in /  0mm 104 W/m2
17:44 63.3 °F /  17.4 °C 51.2 °F /  10.7 °C 30.24in /  1023.9hPa North 2mph /  3.2km/h 5mph /  8km/h 64.6% 0.00in /  0mm 95 W/m2
17:49 63.5 °F /  17.5 °C 51.2 °F /  10.7 °C 30.24in /  1023.9hPa North 3.1mph /  5km/h 5mph /  8km/h 64.6% 0.00in /  0mm 84 W/m2
17:54 63.3 °F /  17.4 °C 51.3 °F /  10.7 °C 30.24in /  1023.9hPa NNE 2.1mph /  3.4km/h 5mph /  8km/h 64.8% 0.00in /  0mm 70 W/m2
17:59 63.3 °F /  17.4 °C 51.3 °F /  10.7 °C 30.25in /  1024.3hPa North 3.2mph /  5.1km/h 4mph /  6.4km/h 64.8% 0.00in /  0mm 62 W/m2
18:04 63.1 °F /  17.3 °C 51.1 °F /  10.6 °C 30.25in /  1024.3hPa North 2mph /  3.2km/h 4mph /  6.4km/h 64.6% 0.00in /  0mm 49 W/m2
18:09 63 °F /  17.2 °C 51.3 °F /  10.7 °C 30.25in /  1024.3hPa North 2.5mph /  4km/h 5mph /  8km/h 65.8% 0.00in /  0mm 39 W/m2
18:14 62.6 °F /  17 °C 51.2 °F /  10.7 °C 30.26in /  1024.6hPa North 2mph /  3.2km/h 3mph /  4.8km/h 66.2% 0.00in /  0mm 32 W/m2
18:19 62.2 °F /  16.8 °C 51.1 °F /  10.6 °C 30.26in /  1024.6hPa North 2.4mph /  3.9km/h 4mph /  6.4km/h 67% 0.00in /  0mm 26 W/m2
18:24 62.1 °F /  16.7 °C 51.9 °F /  11.1 °C 30.26in /  1024.6hPa North 0.4mph /  0.6km/h 3mph /  4.8km/h 69% 0.00in /  0mm 19 W/m2
18:29 61.8 °F /  16.6 °C 52.1 °F /  11.2 °C 30.26in /  1024.6hPa North 1.1mph /  1.8km/h 3mph /  4.8km/h 70.4% 0.00in /  0mm 12 W/m2
18:34 61.2 °F /  16.2 °C 52 °F /  11.1 °C 30.26in /  1024.6hPa North 0.6mph /  1km/h 2mph /  3.2km/h 71.8% 0.00in /  0mm 11 W/m2
18:39 60.8 °F /  16 °C 52.2 °F /  11.2 °C 30.27in /  1024.9hPa North 0.5mph /  0.8km/h 2mph /  3.2km/h 73% 0.00in /  0mm 7 W/m2
18:44 59.6 °F /  15.3 °C 51.1 °F /  10.6 °C 30.26in /  1024.6hPa NNW 1.2mph /  1.9km/h 3mph /  4.8km/h 73.4% 0.00in /  0mm 5 W/m2
18:49 58.8 °F /  14.9 °C 50.7 °F /  10.4 °C 30.27in /  1024.9hPa NNW 0.2mph /  0.3km/h 2mph /  3.2km/h 74.6% 0.00in /  0mm 0 W/m2
18:54 57.9 °F /  14.4 °C 50.3 °F /  10.2 °C 30.27in /  1024.9hPa NNW 1.8mph /  2.9km/h 3mph /  4.8km/h 75.8% 0.00in /  0mm 0 W/m2
18:59 57.4 °F /  14.1 °C 50.2 °F /  10.1 °C 30.27in /  1024.9hPa NNW 2.2mph /  3.5km/h 4mph /  6.4km/h 76.8% 0.00in /  0mm 0 W/m2
19:04 57.1 °F /  13.9 °C 49.9 °F /  9.9 °C 30.27in /  1024.9hPa NNW 0.5mph /  0.8km/h 2mph /  3.2km/h 77% 0.00in /  0mm 0 W/m2
19:09 57.5 °F /  14.2 °C 50.6 °F /  10.3 °C 30.27in /  1024.9hPa NNW 0.2mph /  0.3km/h 1mph /  1.6km/h 78% 0.00in /  0mm 0 W/m2
19:14 57.7 °F /  14.3 °C 50.9 °F /  10.5 °C 30.27in /  1024.9hPa Calm   1mph /  1.6km/h 78% 0.00in /  0mm 0 W/m2
19:19 57.4 °F /  14.1 °C 50.5 °F /  10.3 °C 30.28in /  1025.3hPa NNW 0.5mph /  0.8km/h 1mph /  1.6km/h 78% 0.00in /  0mm 0 W/m2
19:24 57.2 °F /  14 °C 50.4 °F /  10.2 °C 30.28in /  1025.3hPa NNW 0.4mph /  0.6km/h 2mph /  3.2km/h 78% 0.00in /  0mm 0 W/m2
19:29 56.3 °F /  13.5 °C 49.4 °F /  9.7 °C 30.28in /  1025.3hPa NNW 0.5mph /  0.8km/h 1mph /  1.6km/h 78% 0.00in /  0mm 0 W/m2
19:34 55.3 °F /  12.9 °C 48.7 °F /  9.3 °C 30.29in /  1025.6hPa NNW 1.1mph /  1.8km/h 3mph /  4.8km/h 78% 0.00in /  0mm 0 W/m2
19:39 54.9 °F /  12.7 °C 48.2 °F /  9 °C 30.29in /  1025.6hPa NNW 1mph /  1.6km/h 2mph /  3.2km/h 78% 0.00in /  0mm 0 W/m2
19:44 54.9 °F /  12.7 °C 48.2 °F /  9 °C 30.29in /  1025.6hPa NNW 1.1mph /  1.8km/h 2mph /  3.2km/h 78% 0.00in /  0mm 0 W/m2
19:49 54.7 °F /  12.6 °C 48 °F /  8.9 °C 30.30in /  1026hPa NNW 1.3mph /  2.1km/h 2mph /  3.2km/h 78% 0.00in /  0mm 0 W/m2
19:54 54.6 °F /  12.6 °C 48.1 °F /  8.9 °C 30.30in /  1026hPa NNW 0.9mph /  1.4km/h 2mph /  3.2km/h 78.4% 0.00in /  0mm 0 W/m2
19:59 54.3 °F /  12.4 °C 48 °F /  8.9 °C 30.30in /  1026hPa Calm   1mph /  1.6km/h 79% 0.00in /  0mm 0 W/m2
20:04 54 °F /  12.2 °C 47.8 °F /  8.8 °C 30.30in /  1026hPa NNW 0.5mph /  0.8km/h 2mph /  3.2km/h 79.4% 0.00in /  0mm 0 W/m2
20:09 53.8 °F /  12.1 °C 47.8 °F /  8.8 °C 30.31in /  1026.3hPa Calm   1mph /  1.6km/h 80% 0.00in /  0mm 0 W/m2
20:14 53.4 °F /  11.9 °C 47.6 °F /  8.7 °C 30.31in /  1026.3hPa NNW 0.2mph /  0.3km/h 1mph /  1.6km/h 80.8% 0.00in /  0mm 0 W/m2
20:19 53.1 °F /  11.7 °C 47.5 °F /  8.6 °C 30.31in /  1026.3hPa Calm     81.2% 0.00in /  0mm 0 W/m2
20:24 53.2 °F /  11.8 °C 47.8 °F /  8.8 °C 30.31in /  1026.3hPa Calm     82% 0.00in /  0mm 0 W/m2
20:29 53.2 °F /  11.8 °C 47.9 °F /  8.8 °C 30.31in /  1026.3hPa Calm     82.2% 0.00in /  0mm 0 W/m2
20:34 53.2 °F /  11.8 °C 48.2 °F /  9 °C 30.31in /  1026.3hPa Calm     83% 0.00in /  0mm 0 W/m2
20:39 53.2 °F /  11.8 °C 48.2 °F /  9 °C 30.32in /  1026.6hPa North 0.8mph /  1.3km/h 3mph /  4.8km/h 83% 0.00in /  0mm 0 W/m2
20:44 53.2 °F /  11.8 °C 48.2 °F /  9 °C 30.31in /  1026.3hPa North 1.8mph /  2.9km/h 3mph /  4.8km/h 83% 0.00in /  0mm 0 W/m2
20:49 53.1 °F /  11.7 °C 48 °F /  8.9 °C 30.31in /  1026.3hPa North 0.2mph /  0.3km/h 2mph /  3.2km/h 83% 0.00in /  0mm 0 W/m2
20:54 52.9 °F /  11.6 °C 47.8 °F /  8.8 °C 30.32in /  1026.6hPa Calm     83% 0.00in /  0mm 0 W/m2
20:58 52.8 °F /  11.6 °C 47.8 °F /  8.8 °C 30.32in /  1026.6hPa Calm     83.3% 0.00in /  0mm 0 W/m2
21:04 52.5 °F /  11.4 °C 47.8 °F /  8.8 °C 30.32in /  1026.6hPa Calm     84% 0.00in /  0mm 0 W/m2
21:09 52.4 °F /  11.3 °C 47.8 °F /  8.8 °C 30.32in /  1026.6hPa North 0.6mph /  1km/h 2mph /  3.2km/h 84% 0.00in /  0mm 0 W/m2
21:14 52.1 °F /  11.2 °C 47.5 °F /  8.6 °C 30.32in /  1026.6hPa North 0.7mph /  1.1km/h 2mph /  3.2km/h 84% 0.00in /  0mm 0 W/m2
21:19 51.8 °F /  11 °C 47.1 °F /  8.4 °C 30.32in /  1026.6hPa Calm   2mph /  3.2km/h 84.2% 0.00in /  0mm 0 W/m2
21:24 51.6 °F /  10.9 °C 47.3 °F /  8.5 °C 30.32in /  1026.6hPa North 0.4mph /  0.6km/h 1mph /  1.6km/h 85% 0.00in /  0mm 0 W/m2
21:29 52 °F /  11.1 °C 47.7 °F /  8.7 °C 30.32in /  1026.6hPa North 0.4mph /  0.6km/h 1mph /  1.6km/h 85.2% 0.00in /  0mm 0 W/m2
21:34 52.8 °F /  11.6 °C 48.6 °F /  9.2 °C 30.32in /  1026.6hPa Calm     86% 0.00in /  0mm 0 W/m2
21:39 52.9 °F /  11.6 °C 48.8 °F /  9.3 °C 30.32in /  1026.6hPa Calm     86% 0.00in /  0mm 0 W/m2
21:44 53.7 °F /  12.1 °C 49.6 °F /  9.8 °C 30.32in /  1026.6hPa Calm     86.2% 0.00in /  0mm 0 W/m2
21:49 53.9 °F /  12.2 °C 49.7 °F /  9.8 °C 30.32in /  1026.6hPa Calm     86% 0.00in /  0mm 0 W/m2
21:54 54 °F /  12.2 °C 49.8 °F /  9.9 °C 30.32in /  1026.6hPa Calm     86% 0.00in /  0mm 0 W/m2
21:59 53.9 °F /  12.2 °C 49.7 °F /  9.8 °C 30.32in /  1026.6hPa Calm     85.8% 0.00in /  0mm 0 W/m2
22:04 53.3 °F /  11.8 °C 49 °F /  9.4 °C 30.32in /  1026.6hPa Calm   1mph /  1.6km/h 85% 0.00in /  0mm 0 W/m2
22:09 52.7 °F /  11.5 °C 48.4 °F /  9.1 °C 30.33in /  1027hPa Calm     85% 0.00in /  0mm 0 W/m2
22:14 51.7 °F /  10.9 °C 47.4 °F /  8.6 °C 30.33in /  1027hPa Calm     85% 0.00in /  0mm 0 W/m2
22:19 51.2 °F /  10.7 °C 46.8 °F /  8.2 °C 30.33in /  1027hPa Calm     85% 0.00in /  0mm 0 W/m2
22:24 50.8 °F /  10.4 °C 46.5 °F /  8.1 °C 30.33in /  1027hPa Calm     85% 0.00in /  0mm 0 W/m2
22:29 50.5 °F /  10.3 °C 46.2 °F /  7.9 °C 30.33in /  1027hPa Calm     85% 0.00in /  0mm 0 W/m2
22:34 50.3 °F /  10.2 °C 46.1 °F /  7.8 °C 30.33in /  1027hPa Calm   1mph /  1.6km/h 85.4% 0.00in /  0mm 0 W/m2
22:39 50 °F /  10 °C 46 °F /  7.8 °C 30.33in /  1027hPa Calm   1mph /  1.6km/h 86% 0.00in /  0mm 0 W/m2
22:44 49.8 °F /  9.9 °C 45.9 °F /  7.7 °C 30.33in /  1027hPa Calm     86% 0.00in /  0mm 0 W/m2
22:49 49.6 °F /  9.8 °C 45.7 °F /  7.6 °C 30.33in /  1027hPa Calm     86% 0.00in /  0mm 0 W/m2
22:54 49.4 °F /  9.7 °C 45.4 °F /  7.4 °C 30.34in /  1027.3hPa Calm     86% 0.00in /  0mm 0 W/m2
22:59 49.2 °F /  9.6 °C 45.2 °F /  7.3 °C 30.34in /  1027.3hPa Calm     86% 0.00in /  0mm 0 W/m2
23:04 48.9 °F /  9.4 °C 45.1 °F /  7.3 °C 30.34in /  1027.3hPa Calm   1mph /  1.6km/h 86.8% 0.00in /  0mm 0 W/m2
23:09 48.8 °F /  9.3 °C 45 °F /  7.2 °C 30.34in /  1027.3hPa Calm     87% 0.00in /  0mm 0 W/m2
23:14 48.7 °F /  9.3 °C 45 °F /  7.2 °C 30.34in /  1027.3hPa Calm   1mph /  1.6km/h 87% 0.00in /  0mm 0 W/m2
23:19 48.6 °F /  9.2 °C 44.8 °F /  7.1 °C 30.34in /  1027.3hPa Calm   1mph /  1.6km/h 87% 0.00in /  0mm 0 W/m2
23:24 48.4 °F /  9.1 °C 44.8 °F /  7.1 °C 30.34in /  1027.3hPa Calm     87% 0.00in /  0mm 0 W/m2
23:29 48 °F /  8.9 °C 44.4 °F /  6.9 °C 30.34in /  1027.3hPa Calm     87% 0.00in /  0mm 0 W/m2
23:34 47.7 °F /  8.7 °C 44.3 °F /  6.8 °C 30.34in /  1027.3hPa Calm     88% 0.00in /  0mm 0 W/m2
23:39 47.7 °F /  8.7 °C 44.2 °F /  6.8 °C 30.34in /  1027.3hPa Calm     88% 0.00in /  0mm 0 W/m2
23:44 47.7 °F /  8.7 °C 44.2 °F /  6.8 °C 30.34in /  1027.3hPa Calm     88% 0.00in /  0mm 0 W/m2
23:49 47.5 °F /  8.6 °C 44.1 °F /  6.7 °C 30.34in /  1027.3hPa Calm     88% 0.00in /  0mm 0 W/m2
23:54 47.4 °F /  8.6 °C 44 °F /  6.7 °C 30.34in /  1027.3hPa Calm     88% 0.00in /  0mm 0 W/m2
23:59 47.3 °F /  8.5 °C 44 °F /  6.7 °C 30.33in /  1027hPa Calm     88.4% 0.00in /  0mm 0 W/m2
Bath Spa Weather
Compliments of Weather Underground - 2 mb